sensor_id;sensor_type;location;lat;lon;timestamp;P1;durP1;ratioP1;P2;durP2;ratioP2
69240;SDS011;56352;55.750;13.198;2023-06-19T00:00:24;16.60;;;12.50;;
69240;SDS011;56352;55.750;13.198;2023-06-19T00:02:51;14.90;;;13.30;;
69240;SDS011;56352;55.750;13.198;2023-06-19T00:05:18;15.55;;;12.95;;
69240;SDS011;56352;55.750;13.198;2023-06-19T00:07:45;15.10;;;13.18;;
69240;SDS011;56352;55.750;13.198;2023-06-19T00:10:11;15.15;;;12.43;;
69240;SDS011;56352;55.750;13.198;2023-06-19T00:12:38;14.57;;;12.30;;
69240;SDS011;56352;55.750;13.198;2023-06-19T00:15:04;14.43;;;12.77;;
69240;SDS011;56352;55.750;13.198;2023-06-19T00:17:31;15.32;;;13.23;;
69240;SDS011;56352;55.750;13.198;2023-06-19T00:19:58;13.98;;;12.48;;
69240;SDS011;56352;55.750;13.198;2023-06-19T00:22:24;16.50;;;13.20;;
69240;SDS011;56352;55.750;13.198;2023-06-19T00:24:51;14.65;;;12.90;;
69240;SDS011;56352;55.750;13.198;2023-06-19T00:27:18;18.58;;;13.30;;
69240;SDS011;56352;55.750;13.198;2023-06-19T00:29:45;15.00;;;12.57;;
69240;SDS011;56352;55.750;13.198;2023-06-19T00:32:11;16.08;;;13.18;;
69240;SDS011;56352;55.750;13.198;2023-06-19T00:34:38;16.00;;;13.15;;
69240;SDS011;56352;55.750;13.198;2023-06-19T00:37:04;16.25;;;13.23;;
69240;SDS011;56352;55.750;13.198;2023-06-19T00:39:31;16.38;;;13.57;;
69240;SDS011;56352;55.750;13.198;2023-06-19T00:41:57;16.73;;;13.55;;
69240;SDS011;56352;55.750;13.198;2023-06-19T00:44:24;16.13;;;14.23;;
69240;SDS011;56352;55.750;13.198;2023-06-19T00:46:51;14.10;;;12.65;;
69240;SDS011;56352;55.750;13.198;2023-06-19T00:49:20;18.63;;;14.18;;
69240;SDS011;56352;55.750;13.198;2023-06-19T00:51:47;15.05;;;12.38;;
69240;SDS011;56352;55.750;13.198;2023-06-19T00:54:13;16.90;;;13.52;;
69240;SDS011;56352;55.750;13.198;2023-06-19T00:56:40;15.15;;;13.35;;
69240;SDS011;56352;55.750;13.198;2023-06-19T00:59:08;16.58;;;13.70;;
69240;SDS011;56352;55.750;13.198;2023-06-19T01:01:38;16.40;;;14.23;;
69240;SDS011;56352;55.750;13.198;2023-06-19T01:04:04;18.25;;;14.57;;
69240;SDS011;56352;55.750;13.198;2023-06-19T01:06:38;19.23;;;15.13;;
69240;SDS011;56352;55.750;13.198;2023-06-19T01:09:07;18.50;;;14.75;;
69240;SDS011;56352;55.750;13.198;2023-06-19T01:11:38;18.65;;;14.88;;
69240;SDS011;56352;55.750;13.198;2023-06-19T01:14:09;20.45;;;15.75;;
69240;SDS011;56352;55.750;13.198;2023-06-19T01:16:39;18.13;;;15.02;;
69240;SDS011;56352;55.750;13.198;2023-06-19T01:19:05;18.20;;;14.82;;
69240;SDS011;56352;55.750;13.198;2023-06-19T01:21:36;19.20;;;14.40;;
69240;SDS011;56352;55.750;13.198;2023-06-19T01:24:03;21.05;;;16.58;;
69240;SDS011;56352;55.750;13.198;2023-06-19T01:26:29;21.80;;;16.75;;
69240;SDS011;56352;55.750;13.198;2023-06-19T01:28:56;22.17;;;17.17;;
69240;SDS011;56352;55.750;13.198;2023-06-19T01:31:33;22.95;;;16.88;;
69240;SDS011;56352;55.750;13.198;2023-06-19T01:34:01;24.27;;;17.52;;
69240;SDS011;56352;55.750;13.198;2023-06-19T01:36:27;24.48;;;18.25;;
69240;SDS011;56352;55.750;13.198;2023-06-19T01:38:55;25.52;;;17.98;;
69240;SDS011;56352;55.750;13.198;2023-06-19T01:41:23;26.02;;;18.20;;
69240;SDS011;56352;55.750;13.198;2023-06-19T01:43:51;28.63;;;18.50;;
69240;SDS011;56352;55.750;13.198;2023-06-19T01:46:18;27.10;;;17.88;;
69240;SDS011;56352;55.750;13.198;2023-06-19T01:48:44;29.48;;;16.55;;
69240;SDS011;56352;55.750;13.198;2023-06-19T01:51:11;26.05;;;16.45;;
69240;SDS011;56352;55.750;13.198;2023-06-19T01:53:38;27.60;;;16.90;;
69240;SDS011;56352;55.750;13.198;2023-06-19T01:56:04;32.28;;;17.10;;
69240;SDS011;56352;55.750;13.198;2023-06-19T01:58:31;24.77;;;16.08;;
69240;SDS011;56352;55.750;13.198;2023-06-19T02:00:57;24.35;;;15.30;;
69240;SDS011;56352;55.750;13.198;2023-06-19T02:03:24;23.35;;;13.82;;
69240;SDS011;56352;55.750;13.198;2023-06-19T02:05:51;23.15;;;14.52;;
69240;SDS011;56352;55.750;13.198;2023-06-19T02:08:18;20.08;;;12.80;;
69240;SDS011;56352;55.750;13.198;2023-06-19T02:10:44;22.17;;;13.50;;
69240;SDS011;56352;55.750;13.198;2023-06-19T02:13:11;19.58;;;12.18;;
69240;SDS011;56352;55.750;13.198;2023-06-19T02:15:37;19.60;;;12.10;;
69240;SDS011;56352;55.750;13.198;2023-06-19T02:18:04;17.75;;;11.38;;
69240;SDS011;56352;55.750;13.198;2023-06-19T02:20:31;20.10;;;12.27;;
69240;SDS011;56352;55.750;13.198;2023-06-19T02:22:58;19.98;;;11.88;;
69240;SDS011;56352;55.750;13.198;2023-06-19T02:25:24;21.77;;;12.43;;
69240;SDS011;56352;55.750;13.198;2023-06-19T02:27:51;20.58;;;12.43;;
69240;SDS011;56352;55.750;13.198;2023-06-19T02:30:18;24.58;;;13.55;;
69240;SDS011;56352;55.750;13.198;2023-06-19T02:32:44;24.48;;;14.18;;
69240;SDS011;56352;55.750;13.198;2023-06-19T02:35:11;26.88;;;15.07;;
69240;SDS011;56352;55.750;13.198;2023-06-19T02:37:38;27.05;;;15.57;;
69240;SDS011;56352;55.750;13.198;2023-06-19T02:40:04;28.35;;;15.45;;
69240;SDS011;56352;55.750;13.198;2023-06-19T02:42:31;30.00;;;15.88;;
69240;SDS011;56352;55.750;13.198;2023-06-19T02:44:58;30.52;;;15.73;;
69240;SDS011;56352;55.750;13.198;2023-06-19T02:47:29;32.53;;;16.63;;
69240;SDS011;56352;55.750;13.198;2023-06-19T02:50:00;29.15;;;16.50;;
69240;SDS011;56352;55.750;13.198;2023-06-19T02:52:26;27.80;;;15.65;;
69240;SDS011;56352;55.750;13.198;2023-06-19T02:54:53;26.60;;;14.90;;
69240;SDS011;56352;55.750;13.198;2023-06-19T02:57:20;23.83;;;13.73;;
69240;SDS011;56352;55.750;13.198;2023-06-19T02:59:47;21.05;;;12.93;;
69240;SDS011;56352;55.750;13.198;2023-06-19T03:02:13;20.30;;;12.38;;
69240;SDS011;56352;55.750;13.198;2023-06-19T03:04:40;21.55;;;12.40;;
69240;SDS011;56352;55.750;13.198;2023-06-19T03:07:07;19.17;;;12.07;;
69240;SDS011;56352;55.750;13.198;2023-06-19T03:09:34;14.60;;;10.18;;
69240;SDS011;56352;55.750;13.198;2023-06-19T03:12:00;15.75;;;9.85;;
69240;SDS011;56352;55.750;13.198;2023-06-19T03:14:27;14.57;;;9.52;;
69240;SDS011;56352;55.750;13.198;2023-06-19T03:16:53;14.73;;;9.27;;
69240;SDS011;56352;55.750;13.198;2023-06-19T03:19:20;13.48;;;8.48;;
69240;SDS011;56352;55.750;13.198;2023-06-19T03:21:46;11.45;;;7.32;;
69240;SDS011;56352;55.750;13.198;2023-06-19T03:24:13;10.82;;;7.40;;
69240;SDS011;56352;55.750;13.198;2023-06-19T03:26:40;11.27;;;7.03;;
69240;SDS011;56352;55.750;13.198;2023-06-19T03:29:06;9.43;;;6.47;;
69240;SDS011;56352;55.750;13.198;2023-06-19T03:31:33;9.25;;;6.22;;
69240;SDS011;56352;55.750;13.198;2023-06-19T03:34:00;9.68;;;6.40;;
69240;SDS011;56352;55.750;13.198;2023-06-19T03:36:26;9.77;;;6.97;;
69240;SDS011;56352;55.750;13.198;2023-06-19T03:38:53;9.35;;;6.25;;
69240;SDS011;56352;55.750;13.198;2023-06-19T03:41:21;8.55;;;5.80;;
69240;SDS011;56352;55.750;13.198;2023-06-19T03:43:47;8.77;;;6.85;;
69240;SDS011;56352;55.750;13.198;2023-06-19T03:46:14;7.88;;;5.78;;
69240;SDS011;56352;55.750;13.198;2023-06-19T03:48:40;7.38;;;5.70;;
69240;SDS011;56352;55.750;13.198;2023-06-19T03:51:07;7.53;;;6.15;;
69240;SDS011;56352;55.750;13.198;2023-06-19T03:53:33;7.22;;;6.00;;
69240;SDS011;56352;55.750;13.198;2023-06-19T03:56:00;9.27;;;6.85;;
69240;SDS011;56352;55.750;13.198;2023-06-19T03:58:26;10.32;;;7.82;;
69240;SDS011;56352;55.750;13.198;2023-06-19T04:00:53;11.23;;;8.13;;
69240;SDS011;56352;55.750;13.198;2023-06-19T04:03:19;9.93;;;8.25;;
69240;SDS011;56352;55.750;13.198;2023-06-19T04:05:46;8.85;;;7.43;;
69240;SDS011;56352;55.750;13.198;2023-06-19T04:08:13;9.63;;;7.70;;
69240;SDS011;56352;55.750;13.198;2023-06-19T04:10:40;9.48;;;8.45;;
69240;SDS011;56352;55.750;13.198;2023-06-19T04:13:06;8.93;;;7.20;;
69240;SDS011;56352;55.750;13.198;2023-06-19T04:18:03;9.38;;;7.47;;
69240;SDS011;56352;55.750;13.198;2023-06-19T04:20:30;8.80;;;6.90;;
69240;SDS011;56352;55.750;13.198;2023-06-19T04:22:56;8.43;;;7.22;;
69240;SDS011;56352;55.750;13.198;2023-06-19T04:25:23;8.80;;;7.28;;
69240;SDS011;56352;55.750;13.198;2023-06-19T04:27:50;10.68;;;8.73;;
69240;SDS011;56352;55.750;13.198;2023-06-19T04:30:16;12.45;;;9.57;;
69240;SDS011;56352;55.750;13.198;2023-06-19T04:32:43;11.30;;;9.52;;
69240;SDS011;56352;55.750;13.198;2023-06-19T04:35:10;12.73;;;10.85;;
69240;SDS011;56352;55.750;13.198;2023-06-19T04:37:36;13.90;;;10.77;;
69240;SDS011;56352;55.750;13.198;2023-06-19T04:40:03;12.30;;;10.95;;
69240;SDS011;56352;55.750;13.198;2023-06-19T04:42:30;14.75;;;10.88;;
69240;SDS011;56352;55.750;13.198;2023-06-19T04:44:57;12.82;;;11.25;;
69240;SDS011;56352;55.750;13.198;2023-06-19T04:47:25;13.80;;;11.98;;
69240;SDS011;56352;55.750;13.198;2023-06-19T04:50:02;12.88;;;11.23;;
69240;SDS011;56352;55.750;13.198;2023-06-19T04:52:28;12.68;;;10.85;;
69240;SDS011;56352;55.750;13.198;2023-06-19T04:54:55;12.50;;;10.93;;
69240;SDS011;56352;55.750;13.198;2023-06-19T04:57:21;12.48;;;11.18;;
69240;SDS011;56352;55.750;13.198;2023-06-19T04:59:48;12.82;;;11.32;;
69240;SDS011;56352;55.750;13.198;2023-06-19T05:02:14;14.25;;;11.75;;
69240;SDS011;56352;55.750;13.198;2023-06-19T05:04:41;12.57;;;11.20;;
69240;SDS011;56352;55.750;13.198;2023-06-19T05:07:10;14.25;;;11.95;;
69240;SDS011;56352;55.750;13.198;2023-06-19T05:09:37;13.15;;;11.48;;
69240;SDS011;56352;55.750;13.198;2023-06-19T05:12:03;14.07;;;12.40;;
69240;SDS011;56352;55.750;13.198;2023-06-19T05:14:30;14.02;;;12.52;;
69240;SDS011;56352;55.750;13.198;2023-06-19T05:16:57;14.15;;;12.35;;
69240;SDS011;56352;55.750;13.198;2023-06-19T05:19:23;14.55;;;13.05;;
69240;SDS011;56352;55.750;13.198;2023-06-19T05:21:50;15.88;;;13.80;;
69240;SDS011;56352;55.750;13.198;2023-06-19T05:24:16;16.15;;;13.63;;
69240;SDS011;56352;55.750;13.198;2023-06-19T05:26:43;14.80;;;13.20;;
69240;SDS011;56352;55.750;13.198;2023-06-19T05:29:10;14.30;;;12.55;;
69240;SDS011;56352;55.750;13.198;2023-06-19T05:31:37;14.60;;;13.07;;
69240;SDS011;56352;55.750;13.198;2023-06-19T05:34:03;14.52;;;12.93;;
69240;SDS011;56352;55.750;13.198;2023-06-19T05:36:30;14.77;;;13.00;;
69240;SDS011;56352;55.750;13.198;2023-06-19T05:38:57;15.00;;;13.27;;
69240;SDS011;56352;55.750;13.198;2023-06-19T05:41:23;16.33;;;13.45;;
69240;SDS011;56352;55.750;13.198;2023-06-19T05:43:50;14.75;;;13.15;;
69240;SDS011;56352;55.750;13.198;2023-06-19T05:46:16;14.43;;;13.02;;
69240;SDS011;56352;55.750;13.198;2023-06-19T05:48:43;14.48;;;13.10;;
69240;SDS011;56352;55.750;13.198;2023-06-19T05:51:09;13.88;;;12.43;;
69240;SDS011;56352;55.750;13.198;2023-06-19T05:53:36;12.05;;;10.85;;
69240;SDS011;56352;55.750;13.198;2023-06-19T05:56:03;12.00;;;10.80;;
69240;SDS011;56352;55.750;13.198;2023-06-19T05:58:29;12.75;;;11.45;;
69240;SDS011;56352;55.750;13.198;2023-06-19T06:00:56;11.68;;;10.57;;
69240;SDS011;56352;55.750;13.198;2023-06-19T06:03:24;15.13;;;12.73;;
69240;SDS011;56352;55.750;13.198;2023-06-19T06:05:51;12.98;;;11.65;;
69240;SDS011;56352;55.750;13.198;2023-06-19T06:08:18;13.07;;;11.77;;
69240;SDS011;56352;55.750;13.198;2023-06-19T06:10:44;12.82;;;11.55;;
69240;SDS011;56352;55.750;13.198;2023-06-19T06:13:11;13.18;;;11.88;;
69240;SDS011;56352;55.750;13.198;2023-06-19T06:15:37;13.20;;;11.80;;
69240;SDS011;56352;55.750;13.198;2023-06-19T06:18:04;12.18;;;10.85;;
69240;SDS011;56352;55.750;13.198;2023-06-19T06:20:31;12.48;;;11.18;;
69240;SDS011;56352;55.750;13.198;2023-06-19T06:22:57;12.27;;;11.10;;
69240;SDS011;56352;55.750;13.198;2023-06-19T06:25:24;12.00;;;10.80;;
69240;SDS011;56352;55.750;13.198;2023-06-19T06:27:51;12.57;;;11.27;;
69240;SDS011;56352;55.750;13.198;2023-06-19T06:30:17;13.60;;;12.10;;
69240;SDS011;56352;55.750;13.198;2023-06-19T06:32:45;11.73;;;10.52;;
69240;SDS011;56352;55.750;13.198;2023-06-19T06:35:12;12.18;;;10.90;;
69240;SDS011;56352;55.750;13.198;2023-06-19T06:37:39;12.32;;;11.13;;
69240;SDS011;56352;55.750;13.198;2023-06-19T06:40:07;11.27;;;10.18;;
69240;SDS011;56352;55.750;13.198;2023-06-19T06:42:38;12.10;;;10.90;;
69240;SDS011;56352;55.750;13.198;2023-06-19T06:45:05;11.60;;;10.50;;
69240;SDS011;56352;55.750;13.198;2023-06-19T06:47:31;12.32;;;10.95;;
69240;SDS011;56352;55.750;13.198;2023-06-19T06:49:58;11.65;;;10.55;;
69240;SDS011;56352;55.750;13.198;2023-06-19T06:52:24;12.05;;;10.25;;
69240;SDS011;56352;55.750;13.198;2023-06-19T06:54:51;11.38;;;9.90;;
69240;SDS011;56352;55.750;13.198;2023-06-19T06:57:17;11.07;;;10.05;;
69240;SDS011;56352;55.750;13.198;2023-06-19T06:59:44;10.90;;;9.80;;
69240;SDS011;56352;55.750;13.198;2023-06-19T07:02:10;10.82;;;9.75;;
69240;SDS011;56352;55.750;13.198;2023-06-19T07:04:37;10.77;;;9.55;;
69240;SDS011;56352;55.750;13.198;2023-06-19T07:07:03;10.50;;;9.40;;
69240;SDS011;56352;55.750;13.198;2023-06-19T07:09:32;10.10;;;8.73;;
69240;SDS011;56352;55.750;13.198;2023-06-19T07:11:59;9.98;;;8.95;;
69240;SDS011;56352;55.750;13.198;2023-06-19T07:14:25;10.32;;;9.32;;
69240;SDS011;56352;55.750;13.198;2023-06-19T07:16:52;10.55;;;9.55;;
69240;SDS011;56352;55.750;13.198;2023-06-19T07:19:18;9.65;;;8.75;;
69240;SDS011;56352;55.750;13.198;2023-06-19T07:21:45;8.82;;;8.02;;
69240;SDS011;56352;55.750;13.198;2023-06-19T07:24:11;8.68;;;7.75;;
69240;SDS011;56352;55.750;13.198;2023-06-19T07:26:38;9.05;;;8.18;;
69240;SDS011;56352;55.750;13.198;2023-06-19T07:29:05;11.23;;;9.05;;
69240;SDS011;56352;55.750;13.198;2023-06-19T07:31:31;9.73;;;8.73;;
69240;SDS011;56352;55.750;13.198;2023-06-19T07:33:58;8.88;;;8.00;;
69240;SDS011;56352;55.750;13.198;2023-06-19T07:36:25;8.73;;;7.93;;
69240;SDS011;56352;55.750;13.198;2023-06-19T07:38:51;8.02;;;7.22;;
69240;SDS011;56352;55.750;13.198;2023-06-19T07:41:18;8.90;;;8.02;;
69240;SDS011;56352;55.750;13.198;2023-06-19T07:43:45;8.38;;;7.47;;
69240;SDS011;56352;55.750;13.198;2023-06-19T07:46:11;9.40;;;7.40;;
69240;SDS011;56352;55.750;13.198;2023-06-19T07:48:38;9.00;;;7.75;;
69240;SDS011;56352;55.750;13.198;2023-06-19T07:51:05;6.82;;;6.22;;
69240;SDS011;56352;55.750;13.198;2023-06-19T07:53:31;7.35;;;6.65;;
69240;SDS011;56352;55.750;13.198;2023-06-19T07:55:58;7.00;;;6.40;;
69240;SDS011;56352;55.750;13.198;2023-06-19T07:58:24;6.90;;;6.30;;
69240;SDS011;56352;55.750;13.198;2023-06-19T08:00:51;7.60;;;6.90;;
69240;SDS011;56352;55.750;13.198;2023-06-19T08:03:17;7.43;;;6.63;;
69240;SDS011;56352;55.750;13.198;2023-06-19T08:05:44;6.90;;;6.20;;
69240;SDS011;56352;55.750;13.198;2023-06-19T08:08:11;7.13;;;6.13;;
69240;SDS011;56352;55.750;13.198;2023-06-19T08:10:38;7.15;;;6.45;;
69240;SDS011;56352;55.750;13.198;2023-06-19T08:13:04;6.53;;;5.68;;
69240;SDS011;56352;55.750;13.198;2023-06-19T08:15:31;5.38;;;4.88;;
69240;SDS011;56352;55.750;13.198;2023-06-19T08:17:58;5.93;;;5.32;;
69240;SDS011;56352;55.750;13.198;2023-06-19T08:20:24;6.28;;;5.55;;
69240;SDS011;56352;55.750;13.198;2023-06-19T08:22:51;5.20;;;4.80;;
69240;SDS011;56352;55.750;13.198;2023-06-19T08:25:18;5.63;;;5.13;;
69240;SDS011;56352;55.750;13.198;2023-06-19T08:27:44;5.47;;;4.93;;
69240;SDS011;56352;55.750;13.198;2023-06-19T08:30:11;5.80;;;5.10;;
69240;SDS011;56352;55.750;13.198;2023-06-19T08:32:38;8.45;;;4.65;;
69240;SDS011;56352;55.750;13.198;2023-06-19T08:35:04;5.13;;;4.63;;
69240;SDS011;56352;55.750;13.198;2023-06-19T08:37:31;5.10;;;4.53;;
69240;SDS011;56352;55.750;13.198;2023-06-19T08:39:57;5.40;;;4.90;;
69240;SDS011;56352;55.750;13.198;2023-06-19T08:42:26;5.97;;;4.40;;
69240;SDS011;56352;55.750;13.198;2023-06-19T08:44:53;7.50;;;4.80;;
69240;SDS011;56352;55.750;13.198;2023-06-19T08:47:19;5.45;;;4.95;;
69240;SDS011;56352;55.750;13.198;2023-06-19T08:49:46;5.47;;;4.97;;
69240;SDS011;56352;55.750;13.198;2023-06-19T08:52:13;5.28;;;4.88;;
69240;SDS011;56352;55.750;13.198;2023-06-19T08:54:39;5.20;;;4.70;;
69240;SDS011;56352;55.750;13.198;2023-06-19T08:57:10;4.75;;;4.35;;
69240;SDS011;56352;55.750;13.198;2023-06-19T08:59:38;5.00;;;4.60;;
69240;SDS011;56352;55.750;13.198;2023-06-19T09:02:05;4.80;;;4.40;;
69240;SDS011;56352;55.750;13.198;2023-06-19T09:04:32;4.75;;;4.32;;
69240;SDS011;56352;55.750;13.198;2023-06-19T09:07:01;5.15;;;4.65;;
69240;SDS011;56352;55.750;13.198;2023-06-19T09:09:29;5.50;;;5.00;;
69240;SDS011;56352;55.750;13.198;2023-06-19T09:11:58;5.38;;;4.95;;
69240;SDS011;56352;55.750;13.198;2023-06-19T09:14:35;5.32;;;4.82;;
69240;SDS011;56352;55.750;13.198;2023-06-19T09:17:02;5.70;;;5.13;;
69240;SDS011;56352;55.750;13.198;2023-06-19T09:19:29;6.20;;;5.60;;
69240;SDS011;56352;55.750;13.198;2023-06-19T09:22:00;5.70;;;5.22;;
69240;SDS011;56352;55.750;13.198;2023-06-19T09:24:32;5.57;;;5.07;;
69240;SDS011;56352;55.750;13.198;2023-06-19T09:27:09;8.93;;;5.03;;
69240;SDS011;56352;55.750;13.198;2023-06-19T09:29:39;5.43;;;5.00;;
69240;SDS011;56352;55.750;13.198;2023-06-19T09:34:45;5.55;;;5.05;;
69240;SDS011;56352;55.750;13.198;2023-06-19T09:37:12;5.78;;;5.25;;
69240;SDS011;56352;55.750;13.198;2023-06-19T09:39:39;5.40;;;4.93;;
69240;SDS011;56352;55.750;13.198;2023-06-19T09:42:09;5.18;;;4.68;;
69240;SDS011;56352;55.750;13.198;2023-06-19T09:44:40;6.05;;;4.90;;
69240;SDS011;56352;55.750;13.198;2023-06-19T09:47:18;4.97;;;4.43;;
69240;SDS011;56352;55.750;13.198;2023-06-19T09:49:50;5.00;;;4.28;;
69240;SDS011;56352;55.750;13.198;2023-06-19T09:52:20;6.28;;;5.65;;
69240;SDS011;56352;55.750;13.198;2023-06-19T09:54:52;5.30;;;4.78;;
69240;SDS011;56352;55.750;13.198;2023-06-19T09:57:19;6.85;;;6.22;;
69240;SDS011;56352;55.750;13.198;2023-06-19T09:59:47;6.38;;;5.88;;
69240;SDS011;56352;55.750;13.198;2023-06-19T10:02:16;6.65;;;6.10;;
69240;SDS011;56352;55.750;13.198;2023-06-19T10:04:44;6.72;;;6.13;;
69240;SDS011;56352;55.750;13.198;2023-06-19T10:07:15;7.03;;;6.32;;
69240;SDS011;56352;55.750;13.198;2023-06-19T10:10:28;6.60;;;6.00;;
69240;SDS011;56352;55.750;13.198;2023-06-19T10:12:39;6.82;;;6.25;;
69240;SDS011;56352;55.750;13.198;2023-06-19T10:15:17;6.63;;;6.05;;
69240;SDS011;56352;55.750;13.198;2023-06-19T10:17:45;6.47;;;5.88;;
69240;SDS011;56352;55.750;13.198;2023-06-19T10:20:25;6.10;;;5.60;;
69240;SDS011;56352;55.750;13.198;2023-06-19T10:25:30;5.13;;;4.63;;
69240;SDS011;56352;55.750;13.198;2023-06-19T10:27:58;4.65;;;4.28;;
69240;SDS011;56352;55.750;13.198;2023-06-19T10:30:25;5.27;;;4.80;;
69240;SDS011;56352;55.750;13.198;2023-06-19T10:32:52;5.70;;;5.20;;
69240;SDS011;56352;55.750;13.198;2023-06-19T10:35:23;5.20;;;4.80;;
69240;SDS011;56352;55.750;13.198;2023-06-19T10:37:51;4.88;;;4.47;;
69240;SDS011;56352;55.750;13.198;2023-06-19T10:40:17;7.00;;;4.60;;
69240;SDS011;56352;55.750;13.198;2023-06-19T10:42:44;6.47;;;5.68;;
69240;SDS011;56352;55.750;13.198;2023-06-19T10:45:11;7.00;;;6.40;;
69240;SDS011;56352;55.750;13.198;2023-06-19T10:50:09;6.80;;;5.53;;
69240;SDS011;56352;55.750;13.198;2023-06-19T10:52:39;5.63;;;5.20;;
69240;SDS011;56352;55.750;13.198;2023-06-19T10:55:05;11.85;;;6.30;;
69240;SDS011;56352;55.750;13.198;2023-06-19T10:57:32;6.72;;;6.00;;
69240;SDS011;56352;55.750;13.198;2023-06-19T10:59:58;10.95;;;6.28;;
69240;SDS011;56352;55.750;13.198;2023-06-19T11:02:25;6.63;;;6.07;;
69240;SDS011;56352;55.750;13.198;2023-06-19T11:04:52;7.05;;;6.35;;
69240;SDS011;56352;55.750;13.198;2023-06-19T11:07:19;6.38;;;5.78;;
69240;SDS011;56352;55.750;13.198;2023-06-19T11:09:46;6.30;;;5.80;;
69240;SDS011;56352;55.750;13.198;2023-06-19T11:12:18;7.20;;;5.65;;
69240;SDS011;56352;55.750;13.198;2023-06-19T11:14:45;7.40;;;5.97;;
69240;SDS011;56352;55.750;13.198;2023-06-19T11:17:11;6.40;;;5.80;;
69240;SDS011;56352;55.750;13.198;2023-06-19T11:19:38;5.93;;;5.43;;
69240;SDS011;56352;55.750;13.198;2023-06-19T11:22:06;6.03;;;5.43;;
69240;SDS011;56352;55.750;13.198;2023-06-19T11:24:34;6.25;;;5.75;;
69240;SDS011;56352;55.750;13.198;2023-06-19T11:27:00;5.78;;;5.28;;
69240;SDS011;56352;55.750;13.198;2023-06-19T11:29:31;5.90;;;5.40;;
69240;SDS011;56352;55.750;13.198;2023-06-19T11:32:05;6.13;;;5.53;;
69240;SDS011;56352;55.750;13.198;2023-06-19T11:34:33;5.50;;;5.00;;
69240;SDS011;56352;55.750;13.198;2023-06-19T11:37:23;5.80;;;5.40;;
69240;SDS011;56352;55.750;13.198;2023-06-19T11:39:49;6.30;;;5.80;;
69240;SDS011;56352;55.750;13.198;2023-06-19T11:42:17;5.90;;;5.40;;
69240;SDS011;56352;55.750;13.198;2023-06-19T11:44:53;5.90;;;5.40;;
69240;SDS011;56352;55.750;13.198;2023-06-19T11:47:21;6.20;;;5.70;;
69240;SDS011;56352;55.750;13.198;2023-06-19T11:49:48;6.22;;;5.47;;
69240;SDS011;56352;55.750;13.198;2023-06-19T11:52:14;6.68;;;5.60;;
69240;SDS011;56352;55.750;13.198;2023-06-19T11:54:41;5.55;;;5.10;;
69240;SDS011;56352;55.750;13.198;2023-06-19T11:57:09;5.22;;;4.78;;
69240;SDS011;56352;55.750;13.198;2023-06-19T11:59:38;5.07;;;4.57;;
69240;SDS011;56352;55.750;13.198;2023-06-19T12:02:05;4.80;;;4.40;;
69240;SDS011;56352;55.750;13.198;2023-06-19T12:04:32;5.22;;;4.82;;
69240;SDS011;56352;55.750;13.198;2023-06-19T12:06:59;5.55;;;5.05;;
69240;SDS011;56352;55.750;13.198;2023-06-19T12:09:25;5.35;;;4.95;;
69240;SDS011;56352;55.750;13.198;2023-06-19T12:11:52;5.05;;;4.65;;
69240;SDS011;56352;55.750;13.198;2023-06-19T12:14:19;5.20;;;4.80;;
69240;SDS011;56352;55.750;13.198;2023-06-19T12:16:47;5.63;;;5.00;;
69240;SDS011;56352;55.750;13.198;2023-06-19T12:19:13;6.15;;;4.63;;
69240;SDS011;56352;55.750;13.198;2023-06-19T12:21:46;5.63;;;5.05;;
69240;SDS011;56352;55.750;13.198;2023-06-19T12:24:12;5.68;;;4.82;;
69240;SDS011;56352;55.750;13.198;2023-06-19T12:26:39;4.85;;;4.45;;
69240;SDS011;56352;55.750;13.198;2023-06-19T12:29:06;6.97;;;5.32;;
69240;SDS011;56352;55.750;13.198;2023-06-19T12:31:33;5.35;;;4.85;;
69240;SDS011;56352;55.750;13.198;2023-06-19T12:34:00;5.35;;;4.90;;
69240;SDS011;56352;55.750;13.198;2023-06-19T12:36:49;6.55;;;5.93;;
69240;SDS011;56352;55.750;13.198;2023-06-19T12:39:16;5.68;;;5.18;;
69240;SDS011;56352;55.750;13.198;2023-06-19T12:41:43;5.32;;;4.82;;
69240;SDS011;56352;55.750;13.198;2023-06-19T12:44:09;5.22;;;4.68;;
69240;SDS011;56352;55.750;13.198;2023-06-19T12:46:36;5.03;;;4.53;;
69240;SDS011;56352;55.750;13.198;2023-06-19T12:49:03;5.10;;;4.30;;
69240;SDS011;56352;55.750;13.198;2023-06-19T12:51:30;5.03;;;4.63;;
69240;SDS011;56352;55.750;13.198;2023-06-19T12:53:56;5.45;;;4.95;;
69240;SDS011;56352;55.750;13.198;2023-06-19T12:56:23;5.38;;;4.80;;
69240;SDS011;56352;55.750;13.198;2023-06-19T12:58:49;5.13;;;4.65;;
69240;SDS011;56352;55.750;13.198;2023-06-19T13:01:16;6.38;;;4.60;;
69240;SDS011;56352;55.750;13.198;2023-06-19T13:03:42;4.57;;;4.18;;
69240;SDS011;56352;55.750;13.198;2023-06-19T13:06:09;5.03;;;4.63;;
69240;SDS011;56352;55.750;13.198;2023-06-19T13:08:36;4.75;;;4.30;;
69240;SDS011;56352;55.750;13.198;2023-06-19T13:11:02;4.70;;;4.30;;
69240;SDS011;56352;55.750;13.198;2023-06-19T13:13:29;5.15;;;4.75;;
69240;SDS011;56352;55.750;13.198;2023-06-19T13:15:55;5.55;;;5.15;;
69240;SDS011;56352;55.750;13.198;2023-06-19T13:18:22;4.65;;;4.25;;
69240;SDS011;56352;55.750;13.198;2023-06-19T13:20:48;4.53;;;4.13;;
69240;SDS011;56352;55.750;13.198;2023-06-19T13:23:16;4.88;;;4.47;;
69240;SDS011;56352;55.750;13.198;2023-06-19T13:25:42;4.40;;;4.10;;
69240;SDS011;56352;55.750;13.198;2023-06-19T13:28:09;5.20;;;4.78;;
69240;SDS011;56352;55.750;13.198;2023-06-19T13:30:35;5.13;;;4.72;;
69240;SDS011;56352;55.750;13.198;2023-06-19T13:33:02;4.88;;;4.47;;
69240;SDS011;56352;55.750;13.198;2023-06-19T13:35:30;4.32;;;4.03;;
69240;SDS011;56352;55.750;13.198;2023-06-19T13:37:57;5.13;;;4.20;;
69240;SDS011;56352;55.750;13.198;2023-06-19T13:40:24;4.80;;;4.40;;
69240;SDS011;56352;55.750;13.198;2023-06-19T13:42:51;4.45;;;4.15;;
69240;SDS011;56352;55.750;13.198;2023-06-19T13:45:17;6.75;;;4.45;;
69240;SDS011;56352;55.750;13.198;2023-06-19T13:47:44;4.97;;;4.53;;
69240;SDS011;56352;55.750;13.198;2023-06-19T13:50:10;4.95;;;4.45;;
69240;SDS011;56352;55.750;13.198;2023-06-19T13:52:45;4.63;;;4.22;;
69240;SDS011;56352;55.750;13.198;2023-06-19T13:55:12;4.63;;;4.18;;
69240;SDS011;56352;55.750;13.198;2023-06-19T13:57:40;5.10;;;4.60;;
69240;SDS011;56352;55.750;13.198;2023-06-19T14:00:10;9.43;;;4.72;;
69240;SDS011;56352;55.750;13.198;2023-06-19T14:02:37;5.43;;;4.63;;
69240;SDS011;56352;55.750;13.198;2023-06-19T14:05:06;5.28;;;4.32;;
69240;SDS011;56352;55.750;13.198;2023-06-19T14:07:34;4.88;;;4.15;;
69240;SDS011;56352;55.750;13.198;2023-06-19T14:10:02;4.40;;;4.00;;
69240;SDS011;56352;55.750;13.198;2023-06-19T14:12:29;4.60;;;4.20;;
69240;SDS011;56352;55.750;13.198;2023-06-19T14:14:56;5.25;;;4.22;;
69240;SDS011;56352;55.750;13.198;2023-06-19T14:17:24;4.53;;;4.13;;
69240;SDS011;56352;55.750;13.198;2023-06-19T14:19:51;6.47;;;4.15;;
69240;SDS011;56352;55.750;13.198;2023-06-19T14:22:18;4.47;;;4.07;;
69240;SDS011;56352;55.750;13.198;2023-06-19T14:24:44;4.63;;;4.20;;
69240;SDS011;56352;55.750;13.198;2023-06-19T14:27:11;4.43;;;3.60;;
69240;SDS011;56352;55.750;13.198;2023-06-19T14:29:39;4.65;;;3.95;;
69240;SDS011;56352;55.750;13.198;2023-06-19T14:32:05;7.38;;;4.00;;
69240;SDS011;56352;55.750;13.198;2023-06-19T14:34:32;4.20;;;3.80;;